createdAt,value
2019-03-30T00:00:13.761Z,7.79
2019-03-30T00:01:13.752Z,7.72
2019-03-30T00:02:13.733Z,7.77
2019-03-30T00:03:13.721Z,7.79
2019-03-30T00:04:13.704Z,7.80
2019-03-30T00:05:13.690Z,7.69
2019-03-30T00:06:13.674Z,7.67
2019-03-30T00:07:13.701Z,7.63
2019-03-30T00:08:13.651Z,7.69
2019-03-30T00:09:13.630Z,7.69
2019-03-30T00:10:13.616Z,7.68
2019-03-30T00:11:13.603Z,7.67
2019-03-30T00:12:13.586Z,7.67
2019-03-30T00:13:13.575Z,7.61
2019-03-30T00:14:13.562Z,7.71
2019-03-30T00:15:13.546Z,7.58
2019-03-30T00:16:13.527Z,7.67
2019-03-30T00:17:13.516Z,7.64
2019-03-30T00:18:13.503Z,7.71
2019-03-30T00:19:13.577Z,7.69
2019-03-30T00:20:13.471Z,7.67
2019-03-30T00:21:13.462Z,7.67
2019-03-30T00:22:13.442Z,7.61
2019-03-30T00:23:13.430Z,7.71
2019-03-30T00:24:13.410Z,7.69
2019-03-30T00:25:13.402Z,7.61
2019-03-30T00:26:13.382Z,7.64
2019-03-30T00:27:13.372Z,7.68
2019-03-30T00:28:13.356Z,7.63
2019-03-30T00:29:13.343Z,7.61
2019-03-30T00:30:13.325Z,7.61
2019-03-30T00:31:13.309Z,7.67
2019-03-30T00:32:13.304Z,7.69
2019-03-30T00:33:13.279Z,7.63
2019-03-30T00:34:13.269Z,7.64
2019-03-30T00:35:13.249Z,7.69
2019-03-30T00:36:13.239Z,7.52
2019-03-30T00:37:13.222Z,7.53
2019-03-30T00:38:13.218Z,7.50
2019-03-30T00:39:13.195Z,7.53
2019-03-30T00:40:13.187Z,7.53
2019-03-30T00:41:13.164Z,7.55
2019-03-30T00:42:13.152Z,7.53
2019-03-30T00:43:13.134Z,7.45
2019-03-30T00:44:13.119Z,7.46
2019-03-30T00:45:13.102Z,7.39
2019-03-30T00:46:13.089Z,7.35
2019-03-30T00:47:13.074Z,7.31
2019-03-30T00:48:13.060Z,7.32
2019-03-30T00:49:13.048Z,7.32
2019-03-30T00:50:13.030Z,7.24
2019-03-30T00:51:13.021Z,7.28
2019-03-30T00:52:13.006Z,7.31
2019-03-30T00:53:12.986Z,7.24
2019-03-30T00:54:12.969Z,7.28
2019-03-30T00:55:12.959Z,7.21
2019-03-30T00:56:12.943Z,7.17
2019-03-30T00:57:12.936Z,7.21
2019-03-30T00:58:12.910Z,7.17
2019-03-30T00:59:12.895Z,7.17
2019-03-30T01:00:12.887Z,7.30
2019-03-30T01:01:12.866Z,7.27
2019-03-30T01:02:12.856Z,7.21
2019-03-30T01:03:12.840Z,7.28
2019-03-30T01:04:12.825Z,7.23
2019-03-30T01:05:12.810Z,7.23
2019-03-30T01:06:12.794Z,7.20
2019-03-30T01:07:12.783Z,7.23
2019-03-30T01:08:12.765Z,7.25
2019-03-30T01:09:12.759Z,7.27
2019-03-30T01:10:12.737Z,7.15
2019-03-30T01:11:12.718Z,7.17
2019-03-30T01:12:12.702Z,7.17
2019-03-30T01:13:12.690Z,7.15
2019-03-30T01:14:12.679Z,7.25
2019-03-30T01:15:12.662Z,7.20
2019-03-30T01:16:12.645Z,7.17
2019-03-30T01:17:12.634Z,7.17
2019-03-30T01:18:12.618Z,7.13
2019-03-30T01:19:12.604Z,7.16
2019-03-30T01:20:12.583Z,7.10
2019-03-30T01:21:12.576Z,7.10
2019-03-30T01:22:12.558Z,7.17
2019-03-30T01:23:12.539Z,7.21
2019-03-30T01:24:12.527Z,7.20
2019-03-30T01:25:12.517Z,7.03
2019-03-30T01:26:12.503Z,6.97
2019-03-30T01:27:12.481Z,6.99
2019-03-30T01:28:12.479Z,6.99
2019-03-30T01:29:12.532Z,6.98
2019-03-30T01:30:22.476Z,6.98
2019-03-30T01:31:12.429Z,6.98
2019-03-30T01:32:12.410Z,6.94
2019-03-30T01:33:12.396Z,6.95
2019-03-30T01:34:12.374Z,6.97
2019-03-30T01:35:12.483Z,6.92
2019-03-30T01:36:12.353Z,6.85
2019-03-30T01:37:12.334Z,6.99
2019-03-30T01:38:12.321Z,6.97
2019-03-30T01:39:12.306Z,6.95
2019-03-30T01:40:12.292Z,6.99
2019-03-30T01:41:12.272Z,6.99
2019-03-30T01:42:12.257Z,6.95
2019-03-30T01:43:12.247Z,6.94
2019-03-30T01:44:12.231Z,6.98
2019-03-30T01:45:12.218Z,6.99
2019-03-30T01:46:12.245Z,6.95
2019-03-30T01:47:12.184Z,6.98
2019-03-30T01:48:12.167Z,6.87
2019-03-30T01:49:12.157Z,6.99
2019-03-30T01:50:17.578Z,7.02
2019-03-30T01:51:12.122Z,6.95
2019-03-30T01:52:12.112Z,6.94
2019-03-30T01:53:12.094Z,6.85
2019-03-30T01:54:12.081Z,6.84
2019-03-30T01:55:12.059Z,6.87
2019-03-30T01:56:12.047Z,6.81
2019-03-30T01:57:12.036Z,6.71
2019-03-30T01:58:12.020Z,6.69
2019-03-30T01:59:12.095Z,6.73
2019-03-30T02:00:11.990Z,6.59
2019-03-30T02:01:11.981Z,6.56
2019-03-30T02:02:11.954Z,6.69
2019-03-30T02:03:11.946Z,6.64
2019-03-30T02:04:11.928Z,6.67
2019-03-30T02:05:11.916Z,6.70
2019-03-30T02:06:11.898Z,6.73
2019-03-30T02:07:11.881Z,6.70
2019-03-30T02:08:11.875Z,6.79
2019-03-30T02:09:11.857Z,6.73
2019-03-30T02:10:11.839Z,6.70
2019-03-30T02:11:11.823Z,6.79
2019-03-30T02:12:11.804Z,6.76
2019-03-30T02:13:11.794Z,6.77
2019-03-30T02:14:11.775Z,6.77
2019-03-30T02:15:11.772Z,6.85
2019-03-30T02:16:11.744Z,6.92
2019-03-30T02:17:11.730Z,6.77
2019-03-30T02:18:11.714Z,6.84
2019-03-30T02:19:11.706Z,6.81
2019-03-30T02:20:11.686Z,6.85
2019-03-30T02:21:11.672Z,6.76
2019-03-30T02:22:11.655Z,6.71
2019-03-30T02:23:11.641Z,6.81
2019-03-30T02:24:11.629Z,6.73
2019-03-30T02:25:11.616Z,6.71
2019-03-30T02:26:11.596Z,6.64
2019-03-30T02:27:11.582Z,6.71
2019-03-30T02:28:11.572Z,6.69
2019-03-30T02:29:11.552Z,6.70
2019-03-30T02:30:11.539Z,6.73
2019-03-30T02:31:11.520Z,6.69
2019-03-30T02:32:11.511Z,6.67
2019-03-30T02:33:11.492Z,6.66
2019-03-30T02:34:11.475Z,6.58
2019-03-30T02:35:11.458Z,6.64
2019-03-30T02:36:11.448Z,6.70
2019-03-30T02:37:11.431Z,6.64
2019-03-30T02:38:11.413Z,6.64
2019-03-30T02:39:11.404Z,6.58
2019-03-30T02:40:11.385Z,6.58
2019-03-30T02:41:11.372Z,6.59
2019-03-30T02:42:11.354Z,6.49
2019-03-30T02:43:11.340Z,6.58
2019-03-30T02:44:11.323Z,6.51
2019-03-30T02:45:11.365Z,6.48
2019-03-30T02:46:11.295Z,6.55
2019-03-30T02:47:11.283Z,6.55
2019-03-30T02:48:11.268Z,6.56
2019-03-30T02:49:11.248Z,6.62
2019-03-30T02:50:11.235Z,6.54
2019-03-30T02:51:11.221Z,6.49
2019-03-30T02:52:11.201Z,6.40
2019-03-30T02:53:11.188Z,6.40
2019-03-30T02:54:11.174Z,6.40
2019-03-30T02:55:12.674Z,6.37
2019-03-30T02:56:11.142Z,6.40
2019-03-30T02:57:11.126Z,6.46
2019-03-30T02:58:11.108Z,6.37
2019-03-30T02:59:11.099Z,6.40
2019-03-30T03:00:11.105Z,6.43
2019-03-30T03:01:11.069Z,6.43
2019-03-30T03:02:11.056Z,6.40
2019-03-30T03:03:11.034Z,6.49
2019-03-30T03:04:11.019Z,6.49
2019-03-30T03:05:11.008Z,6.49
2019-03-30T03:06:11.005Z,6.46
2019-03-30T03:07:10.973Z,6.43
2019-03-30T03:08:10.960Z,6.46
2019-03-30T03:09:10.948Z,6.56
2019-03-30T03:10:10.930Z,6.48
2019-03-30T03:11:10.919Z,6.49
2019-03-30T03:12:10.901Z,6.54
2019-03-30T03:13:10.890Z,6.49
2019-03-30T03:14:10.874Z,6.49
2019-03-30T03:15:10.858Z,6.52
2019-03-30T03:16:10.841Z,6.52
2019-03-30T03:17:10.857Z,6.55
2019-03-30T03:18:10.807Z,6.46
2019-03-30T03:19:10.806Z,6.48
2019-03-30T03:20:10.780Z,6.49
2019-03-30T03:21:10.763Z,6.51
2019-03-30T03:22:10.746Z,6.55
2019-03-30T03:23:10.733Z,6.48
2019-03-30T03:24:10.715Z,6.55
2019-03-30T03:25:10.703Z,6.48
2019-03-30T03:26:10.683Z,6.52
2019-03-30T03:27:10.672Z,6.51
2019-03-30T03:28:10.657Z,6.55
2019-03-30T03:29:10.641Z,6.51
2019-03-30T03:30:10.622Z,6.64
2019-03-30T03:31:10.711Z,6.52
2019-03-30T03:32:10.594Z,6.51
2019-03-30T03:33:10.578Z,6.55
2019-03-30T03:34:10.566Z,6.51
2019-03-30T03:35:10.574Z,6.49
2019-03-30T03:36:10.534Z,6.44
2019-03-30T03:37:10.520Z,6.43
2019-03-30T03:38:10.515Z,6.49
2019-03-30T03:39:10.484Z,6.52
2019-03-30T03:40:10.468Z,6.40
2019-03-30T03:41:10.455Z,6.46
2019-03-30T03:42:10.448Z,6.40
2019-03-30T03:43:10.423Z,6.43
2019-03-30T03:44:10.412Z,6.43
2019-03-30T03:45:10.399Z,6.40
2019-03-30T03:46:10.381Z,6.40
2019-03-30T03:47:10.367Z,6.37
2019-03-30T03:48:10.350Z,6.38
2019-03-30T03:49:10.334Z,6.40
2019-03-30T03:50:10.319Z,6.37
2019-03-30T03:51:25.092Z,6.34
2019-03-30T03:52:10.290Z,6.33
2019-03-30T03:53:10.270Z,6.34
2019-03-30T03:54:10.255Z,6.25
2019-03-30T03:55:10.238Z,6.33
2019-03-30T03:56:10.229Z,6.25
2019-03-30T03:57:10.215Z,6.31
2019-03-30T03:58:10.194Z,6.27
2019-03-30T03:59:10.178Z,6.31
2019-03-30T04:00:10.165Z,6.37
2019-03-30T04:01:10.180Z,6.36
2019-03-30T04:02:10.133Z,6.27
2019-03-30T04:03:10.131Z,6.34
2019-03-30T04:04:10.103Z,6.33
2019-03-30T04:05:10.093Z,6.25
2019-03-30T04:06:10.069Z,6.19
2019-03-30T04:07:10.062Z,6.08
2019-03-30T04:08:10.041Z,6.03
2019-03-30T04:09:10.030Z,5.97
2019-03-30T04:10:10.015Z,5.94
2019-03-30T04:11:09.996Z,5.94
2019-03-30T04:12:09.985Z,5.82
2019-03-30T04:13:09.971Z,5.78
2019-03-30T04:14:09.948Z,5.83
2019-03-30T04:15:09.932Z,5.81
2019-03-30T04:16:09.920Z,5.81
2019-03-30T04:17:09.919Z,5.91
2019-03-30T04:18:09.887Z,5.89
2019-03-30T04:19:09.869Z,5.99
2019-03-30T04:20:09.852Z,6.00
2019-03-30T04:21:09.843Z,5.94
2019-03-30T04:22:09.826Z,5.97
2019-03-30T04:23:09.808Z,5.94
2019-03-30T04:24:09.793Z,5.93
2019-03-30T04:25:09.779Z,5.91
2019-03-30T04:26:09.765Z,5.86
2019-03-30T04:27:09.748Z,5.91
2019-03-30T04:28:09.727Z,5.94
2019-03-30T04:29:09.720Z,5.89
2019-03-30T04:30:09.704Z,5.89
2019-03-30T04:31:09.685Z,5.99
2019-03-30T04:32:09.684Z,5.99
2019-03-30T04:33:09.657Z,5.91
2019-03-30T04:34:09.639Z,6.01
2019-03-30T04:35:09.642Z,6.04
2019-03-30T04:36:09.601Z,6.01
2019-03-30T04:37:09.600Z,5.91
2019-03-30T04:38:13.929Z,5.99
2019-03-30T04:39:09.563Z,6.01
2019-03-30T04:40:09.546Z,6.06
2019-03-30T04:41:09.531Z,6.04
2019-03-30T04:42:09.516Z,6.17
2019-03-30T04:43:09.496Z,6.11
2019-03-30T04:44:09.513Z,6.15
2019-03-30T04:45:09.470Z,6.12
2019-03-30T04:46:09.451Z,6.09
2019-03-30T04:47:09.433Z,6.17
2019-03-30T04:48:09.419Z,6.17
2019-03-30T04:49:09.403Z,6.09
2019-03-30T04:50:09.385Z,6.12
2019-03-30T04:51:09.379Z,6.18
2019-03-30T04:52:09.360Z,6.18
2019-03-30T04:53:09.341Z,6.21
2019-03-30T04:54:09.323Z,6.17
2019-03-30T04:55:09.311Z,6.25
2019-03-30T04:56:09.296Z,6.18
2019-03-30T04:57:09.276Z,6.25
2019-03-30T04:58:09.653Z,6.28
2019-03-30T04:59:09.247Z,6.30
2019-03-30T05:00:09.230Z,6.31
2019-03-30T05:01:09.218Z,6.34
2019-03-30T05:02:09.200Z,6.34
2019-03-30T05:03:09.183Z,6.33
2019-03-30T05:04:09.171Z,6.41
2019-03-30T05:05:09.155Z,6.40
2019-03-30T05:06:09.136Z,6.41
2019-03-30T05:07:09.120Z,6.40
2019-03-30T05:08:09.108Z,6.43
2019-03-30T05:09:09.090Z,6.41
2019-03-30T05:10:09.079Z,6.43
2019-03-30T05:11:09.058Z,6.41
2019-03-30T05:12:09.045Z,6.44
2019-03-30T05:13:09.029Z,6.43
2019-03-30T05:14:09.093Z,6.38
2019-03-30T05:15:09.003Z,6.37
2019-03-30T05:16:08.981Z,6.38
2019-03-30T05:17:08.967Z,6.40
2019-03-30T05:18:08.948Z,6.21
2019-03-30T05:19:08.932Z,6.09
2019-03-30T05:20:08.915Z,6.15
2019-03-30T05:21:08.904Z,6.12
2019-03-30T05:22:13.543Z,6.12
2019-03-30T05:23:08.872Z,6.12
2019-03-30T05:24:08.856Z,6.11
2019-03-30T05:25:08.838Z,6.11
2019-03-30T05:26:08.823Z,6.15
2019-03-30T05:27:08.808Z,6.15
2019-03-30T05:28:08.793Z,6.14
2019-03-30T05:29:08.783Z,6.21
2019-03-30T05:30:08.763Z,6.21
2019-03-30T05:31:08.748Z,6.18
2019-03-30T05:32:08.733Z,6.22
2019-03-30T05:33:08.718Z,6.25
2019-03-30T05:34:08.697Z,6.21
2019-03-30T05:35:08.684Z,6.17
2019-03-30T05:36:08.672Z,6.22
2019-03-30T05:37:08.660Z,6.30
2019-03-30T05:38:08.639Z,6.27
2019-03-30T05:39:08.622Z,6.33
2019-03-30T05:40:08.611Z,6.31
2019-03-30T05:41:08.591Z,6.27
2019-03-30T05:42:08.574Z,6.33
2019-03-30T05:43:08.554Z,6.34
2019-03-30T05:44:08.540Z,6.30
2019-03-30T05:45:08.526Z,6.30
2019-03-30T05:46:08.512Z,6.34
2019-03-30T05:47:08.496Z,6.36
2019-03-30T05:48:08.562Z,6.33
2019-03-30T05:49:08.464Z,6.41
2019-03-30T05:50:08.447Z,6.40
2019-03-30T05:51:08.431Z,6.40
2019-03-30T05:52:08.415Z,6.36
2019-03-30T05:53:08.403Z,6.36
2019-03-30T05:54:08.384Z,6.28
2019-03-30T05:55:08.369Z,6.22
2019-03-30T05:56:08.353Z,6.22
2019-03-30T05:57:08.341Z,6.17
2019-03-30T05:58:08.320Z,6.18
2019-03-30T05:59:08.306Z,6.21
2019-03-30T06:00:08.287Z,6.19
2019-03-30T06:01:08.280Z,6.12
2019-03-30T06:02:08.260Z,6.08
2019-03-30T06:03:08.244Z,6.12
2019-03-30T06:04:08.230Z,6.17
2019-03-30T06:05:08.214Z,6.21
2019-03-30T06:06:08.199Z,6.19
2019-03-30T06:07:08.180Z,6.27
2019-03-30T06:08:08.165Z,6.30
2019-03-30T06:09:08.148Z,6.28
2019-03-30T06:10:08.130Z,6.33
2019-03-30T06:11:08.118Z,6.34
2019-03-30T06:12:08.100Z,6.43
2019-03-30T06:13:08.084Z,6.37
2019-03-30T06:14:08.071Z,6.44
2019-03-30T06:15:08.062Z,6.44
2019-03-30T06:16:08.039Z,6.46
2019-03-30T06:17:08.026Z,6.58
2019-03-30T06:18:11.161Z,6.58
2019-03-30T06:19:07.992Z,6.62
2019-03-30T06:20:07.981Z,6.58
2019-03-30T06:21:07.961Z,6.67
2019-03-30T06:22:07.942Z,6.66
2019-03-30T06:23:07.926Z,6.64
2019-03-30T06:24:07.912Z,6.70
2019-03-30T06:25:07.903Z,6.67
2019-03-30T06:26:07.884Z,6.74
2019-03-30T06:27:07.872Z,6.70
2019-03-30T06:28:07.852Z,6.69
2019-03-30T06:29:07.837Z,6.70
2019-03-30T06:30:07.818Z,6.69
2019-03-30T06:31:07.805Z,6.71
2019-03-30T06:32:07.792Z,6.70
2019-03-30T06:33:07.773Z,6.69
2019-03-30T06:34:07.763Z,6.69
2019-03-30T06:35:07.745Z,6.69
2019-03-30T06:36:07.725Z,6.70
2019-03-30T06:37:07.710Z,6.74
2019-03-30T06:38:07.693Z,6.71
2019-03-30T06:39:07.675Z,6.84
2019-03-30T06:40:07.667Z,6.80
2019-03-30T06:41:07.651Z,6.77
2019-03-30T06:42:07.631Z,6.81
2019-03-30T06:43:08.130Z,6.77
2019-03-30T06:44:07.605Z,6.84
2019-03-30T06:45:07.586Z,6.88
2019-03-30T06:46:07.565Z,6.89
2019-03-30T06:47:07.552Z,6.95
2019-03-30T06:48:07.544Z,6.97
2019-03-30T06:49:07.526Z,6.94
2019-03-30T06:50:07.512Z,6.94
2019-03-30T06:51:07.495Z,7.12
2019-03-30T06:52:07.474Z,7.20
2019-03-30T06:53:07.464Z,7.24
2019-03-30T06:54:07.452Z,7.32
2019-03-30T06:55:07.431Z,7.50
2019-03-30T06:56:07.443Z,7.52
2019-03-30T06:57:07.400Z,7.79
2019-03-30T06:58:07.384Z,7.86
2019-03-30T06:59:07.374Z,8.04
2019-03-30T07:00:07.356Z,8.20
2019-03-30T07:01:07.332Z,8.34
2019-03-30T07:02:07.321Z,8.38
2019-03-30T07:03:07.315Z,8.52
2019-03-30T07:04:07.293Z,8.53
2019-03-30T07:05:07.283Z,8.56
2019-03-30T07:06:07.264Z,8.62
2019-03-30T07:07:07.250Z,8.71
2019-03-30T07:08:07.232Z,8.84
2019-03-30T07:09:07.223Z,8.91
2019-03-30T07:10:07.206Z,8.95
2019-03-30T07:11:20.664Z,9.10
2019-03-30T07:12:07.179Z,9.23
2019-03-30T07:13:07.174Z,9.31
2019-03-30T07:14:07.148Z,9.40
2019-03-30T07:15:07.138Z,9.46
2019-03-30T07:16:07.118Z,9.54
2019-03-30T07:17:07.101Z,9.57
2019-03-30T07:18:07.089Z,9.64
2019-03-30T07:19:07.075Z,9.74
2019-03-30T07:20:07.060Z,9.86
2019-03-30T07:21:07.048Z,9.89
2019-03-30T07:22:07.030Z,10.04
2019-03-30T07:23:12.180Z,9.99
2019-03-30T07:24:07.002Z,10.14
2019-03-30T07:25:06.986Z,10.20
2019-03-30T07:26:06.977Z,10.36
2019-03-30T07:27:06.960Z,10.45
2019-03-30T07:28:06.950Z,10.60
2019-03-30T07:29:06.933Z,10.64
2019-03-30T07:30:06.972Z,10.67
2019-03-30T07:31:06.901Z,10.73
2019-03-30T07:32:06.892Z,10.89
2019-03-30T07:33:06.878Z,10.97
2019-03-30T07:34:06.860Z,10.96
2019-03-30T07:35:06.850Z,11.14
2019-03-30T07:36:06.838Z,11.15
2019-03-30T07:37:06.824Z,11.28
2019-03-30T07:38:06.807Z,11.35
2019-03-30T07:39:06.794Z,11.46
2019-03-30T07:40:06.776Z,11.58
2019-03-30T07:41:06.768Z,11.62
2019-03-30T07:42:06.754Z,11.76
2019-03-30T07:43:06.741Z,11.78
2019-03-30T07:44:06.732Z,11.88
2019-03-30T07:45:06.715Z,12.07
2019-03-30T07:46:06.703Z,12.10
2019-03-30T07:47:06.686Z,12.23
2019-03-30T07:48:06.674Z,12.21
2019-03-30T07:49:06.660Z,12.31
2019-03-30T07:50:06.643Z,12.39
2019-03-30T07:51:06.633Z,12.53
2019-03-30T07:52:06.625Z,12.53
2019-03-30T07:53:06.609Z,12.60
2019-03-30T07:54:06.591Z,12.77
2019-03-30T07:55:06.578Z,12.85
2019-03-30T07:56:08.668Z,12.96
2019-03-30T07:57:16.530Z,12.89
2019-03-30T07:58:06.584Z,13.04
2019-03-30T07:59:06.528Z,13.08
2019-03-30T08:00:06.513Z,13.19
2019-03-30T08:01:06.508Z,13.23
2019-03-30T08:02:06.494Z,13.30
2019-03-30T08:03:06.478Z,13.44
2019-03-30T08:04:06.468Z,13.49
2019-03-30T08:05:06.454Z,13.51
2019-03-30T08:06:06.440Z,13.67
2019-03-30T08:07:06.427Z,13.78
2019-03-30T08:08:06.419Z,13.89
2019-03-30T08:09:06.407Z,13.89
2019-03-30T08:10:06.406Z,14.00
2019-03-30T08:11:06.397Z,13.99
2019-03-30T08:12:06.366Z,14.04
2019-03-30T08:13:06.353Z,14.22
2019-03-30T08:14:06.341Z,14.25
2019-03-30T08:15:06.329Z,14.33
2019-03-30T08:16:06.320Z,14.40
2019-03-30T08:17:06.306Z,14.33
2019-03-30T08:18:06.298Z,14.47
2019-03-30T08:19:06.285Z,14.51
2019-03-30T08:20:06.270Z,14.61
2019-03-30T08:21:06.262Z,14.60
2019-03-30T08:22:06.243Z,14.83
2019-03-30T08:23:06.238Z,14.98
2019-03-30T08:24:06.224Z,14.96
2019-03-30T08:25:06.215Z,15.02
2019-03-30T08:26:06.202Z,15.06
2019-03-30T08:27:06.187Z,15.20
2019-03-30T08:28:06.177Z,15.23
2019-03-30T08:29:06.165Z,15.31
2019-03-30T08:30:06.172Z,15.34
2019-03-30T08:31:06.144Z,15.41
2019-03-30T08:32:06.131Z,15.49
2019-03-30T08:33:06.118Z,15.56
2019-03-30T08:34:06.109Z,15.67
2019-03-30T08:35:06.099Z,15.68
2019-03-30T08:36:06.162Z,15.83
2019-03-30T08:37:06.074Z,15.84
2019-03-30T08:38:06.065Z,15.93
2019-03-30T08:39:06.056Z,15.97
2019-03-30T08:40:06.039Z,16.00
2019-03-30T08:41:06.028Z,16.11
2019-03-30T08:42:06.020Z,16.08
2019-03-30T08:43:06.007Z,16.20
2019-03-30T08:44:05.995Z,16.33
2019-03-30T08:45:05.986Z,16.24
2019-03-30T08:46:05.973Z,16.25
2019-03-30T08:47:05.966Z,16.41
2019-03-30T08:48:05.960Z,16.34
2019-03-30T08:49:05.944Z,16.49
2019-03-30T08:50:05.932Z,16.63
2019-03-30T08:51:05.921Z,16.67
2019-03-30T08:52:05.916Z,16.68
2019-03-30T08:53:05.904Z,16.79
2019-03-30T08:54:05.894Z,16.88
2019-03-30T08:55:05.878Z,16.96
2019-03-30T08:56:05.875Z,16.94
2019-03-30T08:57:05.863Z,17.01
2019-03-30T08:58:05.846Z,17.16
2019-03-30T08:59:05.839Z,17.19
2019-03-30T09:00:05.826Z,17.22
2019-03-30T09:01:05.819Z,17.30
2019-03-30T09:02:05.804Z,17.34
2019-03-30T09:03:05.796Z,17.26
2019-03-30T09:04:05.786Z,17.26
2019-03-30T09:05:05.775Z,17.31
2019-03-30T09:06:05.765Z,17.41
2019-03-30T09:07:05.753Z,17.41
2019-03-30T09:08:05.747Z,17.48
2019-03-30T09:09:05.738Z,17.70
2019-03-30T09:10:05.728Z,17.66
2019-03-30T09:11:05.719Z,17.63
2019-03-30T09:12:05.711Z,17.63
2019-03-30T09:13:05.702Z,17.51
2019-03-30T09:14:05.687Z,17.26
2019-03-30T09:15:05.746Z,17.21
2019-03-30T09:16:05.671Z,17.08
2019-03-30T09:17:05.658Z,16.89
2019-03-30T09:18:05.646Z,16.97
2019-03-30T09:19:05.639Z,17.08
2019-03-30T09:20:05.632Z,17.14
2019-03-30T09:21:05.616Z,17.19
2019-03-30T09:22:05.607Z,17.14
2019-03-30T09:23:05.603Z,17.21
2019-03-30T09:24:09.862Z,17.34
2019-03-30T09:25:05.579Z,17.28
2019-03-30T09:26:05.564Z,17.28
2019-03-30T09:27:05.562Z,17.34
2019-03-30T09:28:05.557Z,17.46
2019-03-30T09:29:05.541Z,17.30
2019-03-30T09:30:05.529Z,17.07
2019-03-30T09:31:05.522Z,16.93
2019-03-30T09:32:14.443Z,16.68
2019-03-30T09:33:05.506Z,16.64
2019-03-30T09:34:05.491Z,16.53
2019-03-30T09:35:05.486Z,16.48
2019-03-30T09:36:05.477Z,16.50
2019-03-30T09:37:05.469Z,16.61
2019-03-30T09:38:05.457Z,16.64
2019-03-30T09:39:05.446Z,16.56
2019-03-30T09:40:05.441Z,16.53
2019-03-30T09:41:05.427Z,16.66
2019-03-30T09:42:05.420Z,16.73
2019-03-30T09:43:05.408Z,16.88
2019-03-30T09:44:05.393Z,16.97
2019-03-30T09:45:05.387Z,17.21
2019-03-30T09:46:05.373Z,17.21
2019-03-30T09:47:05.370Z,17.41
2019-03-30T09:48:05.356Z,17.55
2019-03-30T09:49:05.350Z,17.77
2019-03-30T09:50:05.336Z,17.81
2019-03-30T09:51:05.329Z,17.92
2019-03-30T09:52:05.318Z,18.02
2019-03-30T09:53:05.325Z,18.21
2019-03-30T09:54:05.297Z,18.35
2019-03-30T09:55:05.296Z,18.42
2019-03-30T09:56:05.284Z,18.50
2019-03-30T09:57:05.269Z,18.73
2019-03-30T09:58:05.263Z,18.73
2019-03-30T09:59:05.252Z,18.90
2019-03-30T10:00:05.250Z,19.00
2019-03-30T10:01:05.236Z,18.99
2019-03-30T10:02:05.224Z,18.92
2019-03-30T10:03:06.274Z,18.99
2019-03-30T10:04:05.208Z,19.08
2019-03-30T10:05:05.200Z,19.23
2019-03-30T10:06:05.191Z,19.23
2019-03-30T10:07:05.179Z,19.40
2019-03-30T10:08:05.172Z,19.58
2019-03-30T10:09:05.167Z,19.66
2019-03-30T10:10:05.154Z,19.32
2019-03-30T10:11:05.150Z,19.40
2019-03-30T10:12:05.140Z,19.37
2019-03-30T10:13:05.131Z,19.37
2019-03-30T10:14:05.118Z,19.68
2019-03-30T10:15:05.110Z,19.74
2019-03-30T10:16:05.107Z,19.47
2019-03-30T10:17:05.101Z,19.41
2019-03-30T10:18:05.090Z,19.46
2019-03-30T10:19:05.075Z,19.61
2019-03-30T10:20:05.370Z,19.65
2019-03-30T10:21:05.062Z,19.73
2019-03-30T10:22:05.054Z,19.62
2019-03-30T10:23:05.047Z,19.41
2019-03-30T10:24:05.037Z,19.33
2019-03-30T10:25:05.030Z,19.37
2019-03-30T10:26:05.016Z,19.46
2019-03-30T10:27:05.013Z,19.56
2019-03-30T10:28:05.006Z,19.76
2019-03-30T10:29:04.990Z,19.99
2019-03-30T10:30:04.987Z,20.13
2019-03-30T10:31:04.979Z,20.26
2019-03-30T10:32:04.983Z,20.42
2019-03-30T10:33:04.962Z,20.59
2019-03-30T10:34:04.950Z,20.85
2019-03-30T10:35:04.944Z,20.95
2019-03-30T10:36:04.937Z,20.88
2019-03-30T10:37:04.931Z,20.89
2019-03-30T10:38:04.920Z,20.97
2019-03-30T10:39:04.922Z,21.03
2019-03-30T10:40:04.900Z,21.07
2019-03-30T10:41:04.898Z,20.94
2019-03-30T10:42:04.887Z,20.94
2019-03-30T10:43:04.882Z,20.99
2019-03-30T10:44:04.874Z,21.09
2019-03-30T10:45:04.866Z,20.94
2019-03-30T10:46:04.859Z,20.95
2019-03-30T10:47:04.850Z,20.89
2019-03-30T10:48:04.842Z,20.98
2019-03-30T10:49:04.833Z,21.13
2019-03-30T10:50:04.825Z,21.13
2019-03-30T10:51:04.822Z,21.13
2019-03-30T10:52:04.815Z,21.25
2019-03-30T10:53:04.801Z,21.28
2019-03-30T10:54:04.794Z,21.32
2019-03-30T10:55:04.788Z,21.37
2019-03-30T10:56:04.782Z,21.58
2019-03-30T10:57:04.770Z,21.62
2019-03-30T10:58:04.763Z,21.69
2019-03-30T10:59:04.757Z,21.83
2019-03-30T11:00:04.748Z,21.90
2019-03-30T11:01:04.745Z,22.07
2019-03-30T11:02:04.737Z,22.05
2019-03-30T11:03:04.727Z,21.91
2019-03-30T11:04:04.721Z,21.99
2019-03-30T11:05:04.716Z,21.91
2019-03-30T11:06:04.709Z,21.68
2019-03-30T11:07:04.700Z,21.44
2019-03-30T11:08:04.695Z,21.38
2019-03-30T11:09:04.683Z,21.29
2019-03-30T11:10:04.678Z,21.10
2019-03-30T11:11:04.675Z,21.04
2019-03-30T11:12:04.664Z,20.92
2019-03-30T11:13:04.666Z,20.72
2019-03-30T11:14:04.649Z,20.87
2019-03-30T11:15:04.639Z,20.73
2019-03-30T11:16:04.635Z,20.66
2019-03-30T11:17:04.629Z,20.73
2019-03-30T11:18:04.622Z,20.72
2019-03-30T11:19:04.618Z,20.77
2019-03-30T11:20:04.665Z,20.82
2019-03-30T11:21:04.600Z,20.97
2019-03-30T11:22:04.594Z,21.01
2019-03-30T11:23:04.583Z,21.28
2019-03-30T11:24:06.745Z,21.52
2019-03-30T11:25:07.857Z,21.67
2019-03-30T11:26:04.563Z,21.84
2019-03-30T11:27:04.555Z,21.88
2019-03-30T11:28:04.550Z,22.03
2019-03-30T11:29:04.544Z,22.22
2019-03-30T11:30:04.537Z,22.12
2019-03-30T11:31:05.613Z,22.22
2019-03-30T11:32:04.521Z,22.33
2019-03-30T11:33:04.512Z,22.35
2019-03-30T11:34:05.471Z,22.37
2019-03-30T11:35:04.500Z,22.55
2019-03-30T11:36:04.503Z,22.72
2019-03-30T11:37:04.487Z,22.88
2019-03-30T11:38:04.482Z,22.94
2019-03-30T11:39:04.474Z,23.15
2019-03-30T11:40:04.471Z,23.19
2019-03-30T11:41:04.462Z,23.27
2019-03-30T11:42:04.453Z,23.40
2019-03-30T11:43:04.449Z,23.40
2019-03-30T11:44:04.445Z,23.39
2019-03-30T11:45:04.434Z,23.55
2019-03-30T11:46:04.431Z,23.66
2019-03-30T11:47:04.428Z,23.70
2019-03-30T11:48:04.414Z,23.87
2019-03-30T11:49:04.409Z,23.98
2019-03-30T11:50:04.404Z,23.75
2019-03-30T11:51:04.406Z,23.55
2019-03-30T11:52:04.390Z,23.58
2019-03-30T11:53:04.379Z,23.39
2019-03-30T11:54:05.404Z,23.38
2019-03-30T11:55:04.370Z,23.42
2019-03-30T11:56:04.369Z,23.42
2019-03-30T11:57:04.359Z,23.55
2019-03-30T11:58:04.349Z,23.68
2019-03-30T11:59:04.343Z,23.75
2019-03-30T12:00:04.338Z,23.84
2019-03-30T12:01:04.334Z,23.78
2019-03-30T12:02:04.326Z,23.63
2019-03-30T12:03:04.322Z,23.47
2019-03-30T12:04:04.315Z,23.33
2019-03-30T12:05:04.306Z,23.09
2019-03-30T12:06:04.303Z,23.13
2019-03-30T12:07:04.296Z,23.22
2019-03-30T12:08:04.292Z,23.31
2019-03-30T12:09:04.341Z,23.19
2019-03-30T12:10:04.278Z,23.16
2019-03-30T12:11:04.272Z,23.28
2019-03-30T12:12:04.266Z,23.27
2019-03-30T12:13:04.259Z,23.33
2019-03-30T12:14:04.259Z,23.19
2019-03-30T12:15:04.252Z,23.09
2019-03-30T12:16:04.241Z,22.90
2019-03-30T12:17:04.239Z,22.61
2019-03-30T12:18:04.237Z,22.68
2019-03-30T12:19:04.224Z,22.80
2019-03-30T12:20:04.217Z,22.86
2019-03-30T12:21:04.210Z,22.95
2019-03-30T12:22:04.273Z,23.02
2019-03-30T12:23:04.201Z,22.92
2019-03-30T12:24:04.194Z,23.00
2019-03-30T12:25:04.193Z,22.80
2019-03-30T12:26:04.186Z,22.75
2019-03-30T12:27:04.173Z,22.85
2019-03-30T12:28:04.174Z,23.04
2019-03-30T12:29:04.180Z,23.07
2019-03-30T12:30:04.165Z,22.97
2019-03-30T12:31:04.153Z,23.12
2019-03-30T12:32:04.151Z,23.19
2019-03-30T12:33:04.145Z,23.07
2019-03-30T12:34:04.135Z,22.92
2019-03-30T12:35:04.194Z,22.88
2019-03-30T12:36:04.121Z,22.85
2019-03-30T12:37:04.122Z,22.98
2019-03-30T12:38:04.118Z,23.02
2019-03-30T12:39:04.108Z,23.07
2019-03-30T12:40:04.100Z,23.07
2019-03-30T12:41:04.110Z,23.15
2019-03-30T12:42:04.088Z,23.13
2019-03-30T12:43:04.083Z,23.27
2019-03-30T12:44:04.077Z,23.46
2019-03-30T12:45:04.078Z,23.54
2019-03-30T12:46:04.065Z,23.76
2019-03-30T12:47:04.057Z,23.84
2019-03-30T12:48:04.051Z,23.88
2019-03-30T12:49:04.047Z,23.88
2019-03-30T12:50:04.049Z,23.88
2019-03-30T12:51:04.062Z,23.80
2019-03-30T12:52:04.032Z,23.85
2019-03-30T12:53:04.028Z,23.66
2019-03-30T12:54:04.017Z,23.63
2019-03-30T12:55:04.014Z,23.40
2019-03-30T12:56:04.007Z,23.31
2019-03-30T12:57:04.001Z,23.40
2019-03-30T12:58:03.994Z,23.42
2019-03-30T12:59:03.990Z,23.39
2019-03-30T13:00:03.986Z,23.46
2019-03-30T13:01:03.982Z,23.40
2019-03-30T13:02:03.974Z,23.39
2019-03-30T13:03:03.971Z,23.33
2019-03-30T13:04:03.964Z,23.33
2019-03-30T13:05:07.326Z,23.28
2019-03-30T13:06:03.949Z,23.19